To NAV CANADA Home Page Login to a new session Search on AWWS site Feedback and Comments Disclaimer Vers la page française équivalente Tips FAQ What's new on the site To the Forecasts and Observations / NOTAM section To "File a Flight Plan" website Publications and other links Update of the User's profile FIC Telephone Numbers My Weather Data Folder Route Weather Data Regional Weather Data Local Weather Data To the Forecasts and Observations / NOTAM section
Request Generated 07/07/2015 at 04:49:25 UTC . Weather information available at that time is displayed.

METAR/TAF

MAYO/YT    

METAR CYMA 070400Z 23003KT 170V290 20SM FEW055 28/06 A2996 RMK CU1 CU
TR FU SLP148 DENSITY ALT 3400FT=
METAR CYMA 070300Z VRB02KT 20SM FEW055 28/06 A2997 RMK CU1 FU SLP154
DENSITY ALT 3400FT=
METAR CYMA 070200Z 22003KT 180V290 20SM FEW055 28/06 A2999 RMK CU1 FU
SLP161 DENSITY ALT 3400FT=

TAF CYMA 062339Z 0700/0712 15006KT P6SM FEW050
BECMG 0702/0704 VRB03KT
RMK NXT FCST BY 070600Z=
Your time UTC time
Weather data provided by Environment Canada and NAV CANADA